<?xml version='1.0' encoding='UTF-8'?>
<gpx version="1.1" creator="https://www.komoot.de" xmlns="http://www.topografix.com/GPX/1/1" xmlns:xsi="http://www.w3.org/2001/XMLSchema-instance" xsi:schemaLocation="http://www.topografix.com/GPX/1/1 http://www.topografix.com/GPX/1/1/gpx.xsd">
  <metadata>
    <name>de Neuilly-sur-Seine à Pantin</name>
    <author>
      <link href="https://www.komoot.de">
        <text>komoot</text>
        <type>text/html</type>
      </link>
    </author>
  </metadata>
  <trk>
    <name>de Neuilly-sur-Seine à Pantin</name>
    <trkseg>
      <trkpt lat="48.884370" lon="2.269337">
        <ele>41.221415</ele>
        <time>2025-06-26T06:46:56.699Z</time>
      </trkpt>
      <trkpt lat="48.884289" lon="2.269697">
        <ele>41.221415</ele>
        <time>2025-06-26T06:47:03.475Z</time>
      </trkpt>
      <trkpt lat="48.884266" lon="2.269802">
        <ele>41.221415</ele>
        <time>2025-06-26T06:47:05.391Z</time>
      </trkpt>
      <trkpt lat="48.884195" lon="2.269831">
        <ele>41.221415</ele>
        <time>2025-06-26T06:47:07.456Z</time>
      </trkpt>
      <trkpt lat="48.883919" lon="2.271025">
        <ele>41.508983</ele>
        <time>2025-06-26T06:47:30.682Z</time>
      </trkpt>
      <trkpt lat="48.883777" lon="2.271639">
        <ele>41.882599</ele>
        <time>2025-06-26T06:47:42.611Z</time>
      </trkpt>
      <trkpt lat="48.883819" lon="2.271701">
        <ele>41.933696</ele>
        <time>2025-06-26T06:47:44.161Z</time>
      </trkpt>
      <trkpt lat="48.883664" lon="2.272372">
        <ele>42.341944</ele>
        <time>2025-06-26T06:47:56.151Z</time>
      </trkpt>
      <trkpt lat="48.883627" lon="2.272531">
        <ele>42.438761</ele>
        <time>2025-06-26T06:47:58.773Z</time>
      </trkpt>
      <trkpt lat="48.883569" lon="2.272561">
        <ele>42.492240</ele>
        <time>2025-06-26T06:48:00.264Z</time>
      </trkpt>
      <trkpt lat="48.883356" lon="2.273490">
        <ele>42.711366</ele>
        <time>2025-06-26T06:48:15.782Z</time>
      </trkpt>
      <trkpt lat="48.883209" lon="2.274097">
        <ele>42.599279</ele>
        <time>2025-06-26T06:48:25.620Z</time>
      </trkpt>
      <trkpt lat="48.883108" lon="2.274540">
        <ele>42.518034</ele>
        <time>2025-06-26T06:48:32.609Z</time>
      </trkpt>
      <trkpt lat="48.882987" lon="2.275057">
        <ele>42.422943</ele>
        <time>2025-06-26T06:48:40.021Z</time>
      </trkpt>
      <trkpt lat="48.882845" lon="2.275770">
        <ele>42.283815</ele>
        <time>2025-06-26T06:48:49.828Z</time>
      </trkpt>
      <trkpt lat="48.882816" lon="2.275899">
        <ele>42.250189</ele>
        <time>2025-06-26T06:48:51.818Z</time>
      </trkpt>
      <trkpt lat="48.882785" lon="2.275929">
        <ele>42.236407</ele>
        <time>2025-06-26T06:48:52.608Z</time>
      </trkpt>
      <trkpt lat="48.882677" lon="2.276421">
        <ele>42.108471</ele>
        <time>2025-06-26T06:49:00.891Z</time>
      </trkpt>
      <trkpt lat="48.882724" lon="2.276484">
        <ele>42.084971</ele>
        <time>2025-06-26T06:49:02.520Z</time>
      </trkpt>
      <trkpt lat="48.882544" lon="2.277231">
        <ele>41.888741</ele>
        <time>2025-06-26T06:49:13.607Z</time>
      </trkpt>
      <trkpt lat="48.882514" lon="2.277229">
        <ele>41.877478</ele>
        <time>2025-06-26T06:49:14.278Z</time>
      </trkpt>
      <trkpt lat="48.882497" lon="2.277267">
        <ele>41.866142</ele>
        <time>2025-06-26T06:49:15.029Z</time>
      </trkpt>
      <trkpt lat="48.882533" lon="2.277318">
        <ele>41.847687</ele>
        <time>2025-06-26T06:49:15.950Z</time>
      </trkpt>
      <trkpt lat="48.882481" lon="2.277546">
        <ele>41.788164</ele>
        <time>2025-06-26T06:49:19.167Z</time>
      </trkpt>
      <trkpt lat="48.882454" lon="2.277664">
        <ele>41.757347</ele>
        <time>2025-06-26T06:49:20.929Z</time>
      </trkpt>
      <trkpt lat="48.882393" lon="2.277673">
        <ele>41.734360</ele>
        <time>2025-06-26T06:49:22.159Z</time>
      </trkpt>
      <trkpt lat="48.882226" lon="2.278383">
        <ele>41.247497</ele>
        <time>2025-06-26T06:49:33.181Z</time>
      </trkpt>
      <trkpt lat="48.882162" lon="2.278746">
        <ele>40.859833</ele>
        <time>2025-06-26T06:49:39.227Z</time>
      </trkpt>
      <trkpt lat="48.882137" lon="2.278775">
        <ele>40.810511</ele>
        <time>2025-06-26T06:49:39.893Z</time>
      </trkpt>
      <trkpt lat="48.882055" lon="2.279131">
        <ele>40.421416</ele>
        <time>2025-06-26T06:49:44.638Z</time>
      </trkpt>
      <trkpt lat="48.882092" lon="2.279237">
        <ele>40.297626</ele>
        <time>2025-06-26T06:49:46.067Z</time>
      </trkpt>
      <trkpt lat="48.882069" lon="2.279337">
        <ele>40.188347</ele>
        <time>2025-06-26T06:49:47.299Z</time>
      </trkpt>
      <trkpt lat="48.882053" lon="2.279408">
        <ele>40.110928</ele>
        <time>2025-06-26T06:49:48.188Z</time>
      </trkpt>
      <trkpt lat="48.881872" lon="2.280175">
        <ele>39.270352</ele>
        <time>2025-06-26T06:49:57.513Z</time>
      </trkpt>
      <trkpt lat="48.881756" lon="2.280674">
        <ele>38.726613</ele>
        <time>2025-06-26T06:50:03.103Z</time>
      </trkpt>
      <trkpt lat="48.881711" lon="2.280871">
        <ele>38.516374</ele>
        <time>2025-06-26T06:50:05.306Z</time>
      </trkpt>
      <trkpt lat="48.881645" lon="2.280950">
        <ele>38.387613</ele>
        <time>2025-06-26T06:50:06.684Z</time>
      </trkpt>
      <trkpt lat="48.881514" lon="2.281425">
        <ele>37.868352</ele>
        <time>2025-06-26T06:50:12.191Z</time>
      </trkpt>
      <trkpt lat="48.881428" lon="2.281733">
        <ele>37.531021</ele>
        <time>2025-06-26T06:50:15.744Z</time>
      </trkpt>
      <trkpt lat="48.881386" lon="2.281941">
        <ele>37.311670</ele>
        <time>2025-06-26T06:50:18.117Z</time>
      </trkpt>
      <trkpt lat="48.881000" lon="2.283622">
        <ele>36.827410</ele>
        <time>2025-06-26T06:50:44.394Z</time>
      </trkpt>
      <trkpt lat="48.880976" lon="2.283712">
        <ele>36.963841</ele>
        <time>2025-06-26T06:50:46.786Z</time>
      </trkpt>
      <trkpt lat="48.880920" lon="2.283747">
        <ele>37.093176</ele>
        <time>2025-06-26T06:50:48.890Z</time>
      </trkpt>
      <trkpt lat="48.880874" lon="2.283827">
        <ele>37.242460</ele>
        <time>2025-06-26T06:50:51.653Z</time>
      </trkpt>
      <trkpt lat="48.880832" lon="2.283907">
        <ele>37.386264</ele>
        <time>2025-06-26T06:50:54.214Z</time>
      </trkpt>
      <trkpt lat="48.880786" lon="2.283987">
        <ele>37.535549</ele>
        <time>2025-06-26T06:50:56.737Z</time>
      </trkpt>
      <trkpt lat="48.880772" lon="2.284050">
        <ele>37.628968</ele>
        <time>2025-06-26T06:50:58.449Z</time>
      </trkpt>
      <trkpt lat="48.880841" lon="2.284262">
        <ele>37.961263</ele>
        <time>2025-06-26T06:51:04.015Z</time>
      </trkpt>
      <trkpt lat="48.880771" lon="2.284632">
        <ele>38.502121</ele>
        <time>2025-06-26T06:51:12.401Z</time>
      </trkpt>
      <trkpt lat="48.880673" lon="2.285025">
        <ele>39.092565</ele>
        <time>2025-06-26T06:51:21.695Z</time>
      </trkpt>
      <trkpt lat="48.880660" lon="2.285081">
        <ele>39.175992</ele>
        <time>2025-06-26T06:51:23.278Z</time>
      </trkpt>
      <trkpt lat="48.880649" lon="2.285126">
        <ele>39.243434</ele>
        <time>2025-06-26T06:51:24.519Z</time>
      </trkpt>
      <trkpt lat="48.880604" lon="2.285324">
        <ele>39.537727</ele>
        <time>2025-06-26T06:51:29.241Z</time>
      </trkpt>
      <trkpt lat="48.880580" lon="2.285430">
        <ele>39.695215</ele>
        <time>2025-06-26T06:51:31.384Z</time>
      </trkpt>
      <trkpt lat="48.880379" lon="2.286309">
        <ele>40.720176</ele>
        <time>2025-06-26T06:51:47.485Z</time>
      </trkpt>
      <trkpt lat="48.880299" lon="2.286657">
        <ele>41.104634</ele>
        <time>2025-06-26T06:51:55.639Z</time>
      </trkpt>
      <trkpt lat="48.880279" lon="2.286743">
        <ele>41.199764</ele>
        <time>2025-06-26T06:51:57.709Z</time>
      </trkpt>
      <trkpt lat="48.880066" lon="2.287675">
        <ele>42.228753</ele>
        <time>2025-06-26T06:52:16.093Z</time>
      </trkpt>
      <trkpt lat="48.880041" lon="2.287783">
        <ele>42.348158</ele>
        <time>2025-06-26T06:52:18.291Z</time>
      </trkpt>
      <trkpt lat="48.879931" lon="2.288264">
        <ele>42.830054</ele>
        <time>2025-06-26T06:52:27.030Z</time>
      </trkpt>
      <trkpt lat="48.879903" lon="2.288388">
        <ele>42.910935</ele>
        <time>2025-06-26T06:52:28.988Z</time>
      </trkpt>
      <trkpt lat="48.879697" lon="2.289290">
        <ele>43.499990</ele>
        <time>2025-06-26T06:52:44.451Z</time>
      </trkpt>
      <trkpt lat="48.879630" lon="2.289583">
        <ele>43.691362</ele>
        <time>2025-06-26T06:52:49.731Z</time>
      </trkpt>
      <trkpt lat="48.879368" lon="2.290729">
        <ele>44.439851</ele>
        <time>2025-06-26T06:53:09.502Z</time>
      </trkpt>
      <trkpt lat="48.879348" lon="2.290815">
        <ele>44.550140</ele>
        <time>2025-06-26T06:53:11.303Z</time>
      </trkpt>
      <trkpt lat="48.879329" lon="2.290899">
        <ele>44.664061</ele>
        <time>2025-06-26T06:53:12.803Z</time>
      </trkpt>
      <trkpt lat="48.879244" lon="2.291275">
        <ele>45.173964</ele>
        <time>2025-06-26T06:53:21.060Z</time>
      </trkpt>
      <trkpt lat="48.879198" lon="2.291476">
        <ele>45.446903</ele>
        <time>2025-06-26T06:53:25.744Z</time>
      </trkpt>
      <trkpt lat="48.879174" lon="2.291573">
        <ele>45.579816</ele>
        <time>2025-06-26T06:53:27.908Z</time>
      </trkpt>
      <trkpt lat="48.879165" lon="2.291743">
        <ele>45.798542</ele>
        <time>2025-06-26T06:53:31.740Z</time>
      </trkpt>
      <trkpt lat="48.879085" lon="2.292094">
        <ele>46.274958</ele>
        <time>2025-06-26T06:53:39.686Z</time>
      </trkpt>
      <trkpt lat="48.879038" lon="2.292171">
        <ele>46.409688</ele>
        <time>2025-06-26T06:53:41.714Z</time>
      </trkpt>
      <trkpt lat="48.878917" lon="2.292719">
        <ele>47.151040</ele>
        <time>2025-06-26T06:53:53.466Z</time>
      </trkpt>
      <trkpt lat="48.878792" lon="2.293267">
        <ele>47.894914</ele>
        <time>2025-06-26T06:54:05.043Z</time>
      </trkpt>
      <trkpt lat="48.878757" lon="2.293343">
        <ele>47.981367</ele>
        <time>2025-06-26T06:54:06.770Z</time>
      </trkpt>
      <trkpt lat="48.878620" lon="2.294009">
        <ele>48.393681</ele>
        <time>2025-06-26T06:54:19.339Z</time>
      </trkpt>
      <trkpt lat="48.878549" lon="2.294136">
        <ele>48.492170</ele>
        <time>2025-06-26T06:54:22.197Z</time>
      </trkpt>
      <trkpt lat="48.878527" lon="2.294236">
        <ele>48.554474</ele>
        <time>2025-06-26T06:54:23.866Z</time>
      </trkpt>
      <trkpt lat="48.878497" lon="2.294447">
        <ele>48.682027</ele>
        <time>2025-06-26T06:54:27.336Z</time>
      </trkpt>
      <trkpt lat="48.878291" lon="2.295398">
        <ele>49.273634</ele>
        <time>2025-06-26T06:54:43.795Z</time>
      </trkpt>
      <trkpt lat="48.878225" lon="2.295664">
        <ele>49.441618</ele>
        <time>2025-06-26T06:54:49.143Z</time>
      </trkpt>
      <trkpt lat="48.878202" lon="2.295760">
        <ele>49.501988</ele>
        <time>2025-06-26T06:54:50.987Z</time>
      </trkpt>
      <trkpt lat="48.877793" lon="2.297568">
        <ele>50.350353</ele>
        <time>2025-06-26T06:55:18.431Z</time>
      </trkpt>
      <trkpt lat="48.877751" lon="2.297750">
        <ele>50.434131</ele>
        <time>2025-06-26T06:55:21.666Z</time>
      </trkpt>
      <trkpt lat="48.877751" lon="2.297785">
        <ele>50.449334</ele>
        <time>2025-06-26T06:55:22.175Z</time>
      </trkpt>
      <trkpt lat="48.877786" lon="2.298074">
        <ele>50.576973</ele>
        <time>2025-06-26T06:55:27.628Z</time>
      </trkpt>
      <trkpt lat="48.877721" lon="2.298348">
        <ele>50.703493</ele>
        <time>2025-06-26T06:55:33.665Z</time>
      </trkpt>
      <trkpt lat="48.877850" lon="2.298452">
        <ele>50.906052</ele>
        <time>2025-06-26T06:55:38.192Z</time>
      </trkpt>
      <trkpt lat="48.878059" lon="2.298605">
        <ele>51.442022</ele>
        <time>2025-06-26T06:55:45.337Z</time>
      </trkpt>
      <trkpt lat="48.878121" lon="2.298656">
        <ele>51.604898</ele>
        <time>2025-06-26T06:55:47.624Z</time>
      </trkpt>
      <trkpt lat="48.878147" lon="2.298692">
        <ele>51.686150</ele>
        <time>2025-06-26T06:55:48.699Z</time>
      </trkpt>
      <trkpt lat="48.878158" lon="2.298731">
        <ele>51.750634</ele>
        <time>2025-06-26T06:55:49.554Z</time>
      </trkpt>
      <trkpt lat="48.878198" lon="2.298875">
        <ele>51.988174</ele>
        <time>2025-06-26T06:55:52.808Z</time>
      </trkpt>
      <trkpt lat="48.878253" lon="2.298950">
        <ele>52.158876</ele>
        <time>2025-06-26T06:55:54.932Z</time>
      </trkpt>
      <trkpt lat="48.878357" lon="2.299428">
        <ele>52.923959</ele>
        <time>2025-06-26T06:56:05.429Z</time>
      </trkpt>
      <trkpt lat="48.878577" lon="2.300462">
        <ele>54.575394</ele>
        <time>2025-06-26T06:56:31.604Z</time>
      </trkpt>
      <trkpt lat="48.878616" lon="2.300643">
        <ele>54.864825</ele>
        <time>2025-06-26T06:56:35.462Z</time>
      </trkpt>
      <trkpt lat="48.878653" lon="2.300823">
        <ele>54.907467</ele>
        <time>2025-06-26T06:56:39.128Z</time>
      </trkpt>
      <trkpt lat="48.878687" lon="2.300976">
        <ele>54.901349</ele>
        <time>2025-06-26T06:56:41.981Z</time>
      </trkpt>
      <trkpt lat="48.878698" lon="2.301026">
        <ele>54.899351</ele>
        <time>2025-06-26T06:56:42.851Z</time>
      </trkpt>
      <trkpt lat="48.878857" lon="2.301771">
        <ele>54.869678</ele>
        <time>2025-06-26T06:56:54.350Z</time>
      </trkpt>
      <trkpt lat="48.878875" lon="2.301851">
        <ele>54.866475</ele>
        <time>2025-06-26T06:56:55.419Z</time>
      </trkpt>
      <trkpt lat="48.878995" lon="2.302408">
        <ele>54.844270</ele>
        <time>2025-06-26T06:57:03.315Z</time>
      </trkpt>
      <trkpt lat="48.879119" lon="2.302989">
        <ele>54.821129</ele>
        <time>2025-06-26T06:57:11.020Z</time>
      </trkpt>
      <trkpt lat="48.879128" lon="2.303030">
        <ele>54.819492</ele>
        <time>2025-06-26T06:57:11.610Z</time>
      </trkpt>
      <trkpt lat="48.879146" lon="2.303114">
        <ele>54.816145</ele>
        <time>2025-06-26T06:57:12.775Z</time>
      </trkpt>
      <trkpt lat="48.879198" lon="2.303356">
        <ele>54.724577</ele>
        <time>2025-06-26T06:57:16.081Z</time>
      </trkpt>
      <trkpt lat="48.879526" lon="2.304871">
        <ele>53.159033</ele>
        <time>2025-06-26T06:57:36.312Z</time>
      </trkpt>
      <trkpt lat="48.879549" lon="2.304980">
        <ele>53.046673</ele>
        <time>2025-06-26T06:57:37.806Z</time>
      </trkpt>
      <trkpt lat="48.879576" lon="2.305104">
        <ele>52.918464</ele>
        <time>2025-06-26T06:57:39.560Z</time>
      </trkpt>
      <trkpt lat="48.879629" lon="2.305354">
        <ele>52.660645</ele>
        <time>2025-06-26T06:57:42.987Z</time>
      </trkpt>
      <trkpt lat="48.879588" lon="2.305492">
        <ele>52.512012</ele>
        <time>2025-06-26T06:57:44.932Z</time>
      </trkpt>
      <trkpt lat="48.879568" lon="2.305562">
        <ele>52.437100</ele>
        <time>2025-06-26T06:57:45.834Z</time>
      </trkpt>
      <trkpt lat="48.880193" lon="2.308452">
        <ele>48.737265</ele>
        <time>2025-06-26T06:58:20.459Z</time>
      </trkpt>
      <trkpt lat="48.880232" lon="2.308464">
        <ele>48.763776</ele>
        <time>2025-06-26T06:58:21.262Z</time>
      </trkpt>
      <trkpt lat="48.880305" lon="2.308480">
        <ele>48.852110</ele>
        <time>2025-06-26T06:58:22.812Z</time>
      </trkpt>
      <trkpt lat="48.880310" lon="2.308501">
        <ele>48.869701</ele>
        <time>2025-06-26T06:58:23.093Z</time>
      </trkpt>
      <trkpt lat="48.880325" lon="2.308573">
        <ele>48.929189</ele>
        <time>2025-06-26T06:58:24.115Z</time>
      </trkpt>
      <trkpt lat="48.880368" lon="2.308853">
        <ele>49.155660</ele>
        <time>2025-06-26T06:58:28.261Z</time>
      </trkpt>
      <trkpt lat="48.880383" lon="2.308961">
        <ele>49.242601</ele>
        <time>2025-06-26T06:58:29.906Z</time>
      </trkpt>
      <trkpt lat="48.880404" lon="2.309090">
        <ele>49.347273</ele>
        <time>2025-06-26T06:58:31.955Z</time>
      </trkpt>
      <trkpt lat="48.880421" lon="2.309208">
        <ele>49.442418</ele>
        <time>2025-06-26T06:58:33.809Z</time>
      </trkpt>
      <trkpt lat="48.880446" lon="2.309385">
        <ele>49.585008</ele>
        <time>2025-06-26T06:58:36.851Z</time>
      </trkpt>
      <trkpt lat="48.880453" lon="2.309428">
        <ele>49.619899</ele>
        <time>2025-06-26T06:58:37.537Z</time>
      </trkpt>
      <trkpt lat="48.880509" lon="2.309780">
        <ele>49.905143</ele>
        <time>2025-06-26T06:58:43.940Z</time>
      </trkpt>
      <trkpt lat="48.880460" lon="2.309837">
        <ele>49.979033</ele>
        <time>2025-06-26T06:58:45.627Z</time>
      </trkpt>
      <trkpt lat="48.880428" lon="2.309874">
        <ele>50.027180</ele>
        <time>2025-06-26T06:58:46.705Z</time>
      </trkpt>
      <trkpt lat="48.880708" lon="2.312177">
        <ele>54.659571</ele>
        <time>2025-06-26T06:59:41.296Z</time>
      </trkpt>
      <trkpt lat="48.880749" lon="2.312229">
        <ele>54.902971</ele>
        <time>2025-06-26T06:59:43.782Z</time>
      </trkpt>
      <trkpt lat="48.880813" lon="2.312228">
        <ele>55.194761</ele>
        <time>2025-06-26T06:59:46.804Z</time>
      </trkpt>
      <trkpt lat="48.880819" lon="2.312278">
        <ele>55.347142</ele>
        <time>2025-06-26T06:59:48.443Z</time>
      </trkpt>
      <trkpt lat="48.880825" lon="2.312321">
        <ele>55.478930</ele>
        <time>2025-06-26T06:59:49.864Z</time>
      </trkpt>
      <trkpt lat="48.880839" lon="2.312435">
        <ele>55.826622</ele>
        <time>2025-06-26T06:59:53.580Z</time>
      </trkpt>
      <trkpt lat="48.880851" lon="2.312540">
        <ele>56.146142</ele>
        <time>2025-06-26T06:59:57.098Z</time>
      </trkpt>
      <trkpt lat="48.880770" lon="2.312829">
        <ele>57.088005</ele>
        <time>2025-06-26T07:00:07.212Z</time>
      </trkpt>
      <trkpt lat="48.880771" lon="2.312850">
        <ele>57.151130</ele>
        <time>2025-06-26T07:00:07.853Z</time>
      </trkpt>
      <trkpt lat="48.880774" lon="2.312903">
        <ele>57.310617</ele>
        <time>2025-06-26T07:00:09.530Z</time>
      </trkpt>
      <trkpt lat="48.880810" lon="2.313166">
        <ele>58.116019</ele>
        <time>2025-06-26T07:00:17.851Z</time>
      </trkpt>
      <trkpt lat="48.880901" lon="2.313918">
        <ele>59.587893</ele>
        <time>2025-06-26T07:00:39.753Z</time>
      </trkpt>
      <trkpt lat="48.880949" lon="2.314079">
        <ele>59.790889</ele>
        <time>2025-06-26T07:00:44.169Z</time>
      </trkpt>
      <trkpt lat="48.880961" lon="2.314172">
        <ele>59.899722</ele>
        <time>2025-06-26T07:00:46.328Z</time>
      </trkpt>
      <trkpt lat="48.880939" lon="2.314232">
        <ele>59.978608</ele>
        <time>2025-06-26T07:00:47.901Z</time>
      </trkpt>
      <trkpt lat="48.881003" lon="2.314737">
        <ele>60.569193</ele>
        <time>2025-06-26T07:00:58.923Z</time>
      </trkpt>
      <trkpt lat="48.881020" lon="2.314761">
        <ele>60.609699</ele>
        <time>2025-06-26T07:00:59.625Z</time>
      </trkpt>
      <trkpt lat="48.881133" lon="2.314926">
        <ele>60.883262</ele>
        <time>2025-06-26T07:01:04.048Z</time>
      </trkpt>
      <trkpt lat="48.881168" lon="2.315201">
        <ele>61.204916</ele>
        <time>2025-06-26T07:01:08.831Z</time>
      </trkpt>
      <trkpt lat="48.881172" lon="2.315237">
        <ele>61.246842</ele>
        <time>2025-06-26T07:01:09.402Z</time>
      </trkpt>
      <trkpt lat="48.881183" lon="2.315337">
        <ele>61.363271</ele>
        <time>2025-06-26T07:01:10.946Z</time>
      </trkpt>
      <trkpt lat="48.881200" lon="2.315448">
        <ele>61.494148</ele>
        <time>2025-06-26T07:01:12.703Z</time>
      </trkpt>
      <trkpt lat="48.881191" lon="2.315570">
        <ele>61.635124</ele>
        <time>2025-06-26T07:01:14.275Z</time>
      </trkpt>
      <trkpt lat="48.881176" lon="2.315780">
        <ele>61.877694</ele>
        <time>2025-06-26T07:01:16.852Z</time>
      </trkpt>
      <trkpt lat="48.881218" lon="2.316339">
        <ele>61.935800</ele>
        <time>2025-06-26T07:01:23.596Z</time>
      </trkpt>
      <trkpt lat="48.881183" lon="2.316359">
        <ele>61.875022</ele>
        <time>2025-06-26T07:01:24.291Z</time>
      </trkpt>
      <trkpt lat="48.881140" lon="2.316596">
        <ele>61.612206</ele>
        <time>2025-06-26T07:01:27.219Z</time>
      </trkpt>
      <trkpt lat="48.881154" lon="2.316666">
        <ele>61.533993</ele>
        <time>2025-06-26T07:01:28.069Z</time>
      </trkpt>
      <trkpt lat="48.881173" lon="2.316794">
        <ele>61.393720</ele>
        <time>2025-06-26T07:01:29.710Z</time>
      </trkpt>
      <trkpt lat="48.881184" lon="2.316891">
        <ele>61.288497</ele>
        <time>2025-06-26T07:01:30.934Z</time>
      </trkpt>
      <trkpt lat="48.881214" lon="2.317002">
        <ele>61.160209</ele>
        <time>2025-06-26T07:01:32.547Z</time>
      </trkpt>
      <trkpt lat="48.881227" lon="2.317013">
        <ele>61.136026</ele>
        <time>2025-06-26T07:01:32.878Z</time>
      </trkpt>
      <trkpt lat="48.881233" lon="2.317011">
        <ele>61.126041</ele>
        <time>2025-06-26T07:01:33.002Z</time>
      </trkpt>
      <trkpt lat="48.881290" lon="2.316982">
        <ele>61.028337</ele>
        <time>2025-06-26T07:01:34.202Z</time>
      </trkpt>
      <trkpt lat="48.881331" lon="2.316961">
        <ele>60.958011</ele>
        <time>2025-06-26T07:01:35.120Z</time>
      </trkpt>
      <trkpt lat="48.881368" lon="2.316943">
        <ele>60.894863</ele>
        <time>2025-06-26T07:01:35.985Z</time>
      </trkpt>
      <trkpt lat="48.881730" lon="2.318813">
        <ele>58.994391</ele>
        <time>2025-06-26T07:01:58.330Z</time>
      </trkpt>
      <trkpt lat="48.881738" lon="2.318853">
        <ele>58.966612</ele>
        <time>2025-06-26T07:01:58.779Z</time>
      </trkpt>
      <trkpt lat="48.882030" lon="2.320302">
        <ele>57.959644</ele>
        <time>2025-06-26T07:02:15.983Z</time>
      </trkpt>
      <trkpt lat="48.882042" lon="2.320357">
        <ele>57.921141</ele>
        <time>2025-06-26T07:02:16.956Z</time>
      </trkpt>
      <trkpt lat="48.882055" lon="2.320419">
        <ele>57.877903</ele>
        <time>2025-06-26T07:02:17.969Z</time>
      </trkpt>
      <trkpt lat="48.882074" lon="2.320436">
        <ele>57.855629</ele>
        <time>2025-06-26T07:02:18.429Z</time>
      </trkpt>
      <trkpt lat="48.882096" lon="2.320457">
        <ele>57.829384</ele>
        <time>2025-06-26T07:02:19.027Z</time>
      </trkpt>
      <trkpt lat="48.882117" lon="2.320528">
        <ele>57.777657</ele>
        <time>2025-06-26T07:02:20.373Z</time>
      </trkpt>
      <trkpt lat="48.882128" lon="2.320567">
        <ele>57.749461</ele>
        <time>2025-06-26T07:02:21.124Z</time>
      </trkpt>
      <trkpt lat="48.882209" lon="2.320882">
        <ele>57.524731</ele>
        <time>2025-06-26T07:02:27.213Z</time>
      </trkpt>
      <trkpt lat="48.882152" lon="2.321079">
        <ele>57.769479</ele>
        <time>2025-06-26T07:02:31.554Z</time>
      </trkpt>
      <trkpt lat="48.882327" lon="2.321878">
        <ele>59.459020</ele>
        <time>2025-06-26T07:02:51.943Z</time>
      </trkpt>
      <trkpt lat="48.882440" lon="2.322497">
        <ele>60.747829</ele>
        <time>2025-06-26T07:03:09.223Z</time>
      </trkpt>
      <trkpt lat="48.882489" lon="2.322576">
        <ele>60.965697</ele>
        <time>2025-06-26T07:03:12.112Z</time>
      </trkpt>
      <trkpt lat="48.882627" lon="2.323255">
        <ele>62.391487</ele>
        <time>2025-06-26T07:03:28.780Z</time>
      </trkpt>
      <trkpt lat="48.882632" lon="2.323285">
        <ele>62.453576</ele>
        <time>2025-06-26T07:03:29.461Z</time>
      </trkpt>
      <trkpt lat="48.882643" lon="2.323337">
        <ele>62.563163</ele>
        <time>2025-06-26T07:03:30.618Z</time>
      </trkpt>
      <trkpt lat="48.882650" lon="2.323371">
        <ele>62.634639</ele>
        <time>2025-06-26T07:03:31.322Z</time>
      </trkpt>
      <trkpt lat="48.882793" lon="2.324057">
        <ele>63.381929</ele>
        <time>2025-06-26T07:03:45.165Z</time>
      </trkpt>
      <trkpt lat="48.882801" lon="2.324094">
        <ele>63.411170</ele>
        <time>2025-06-26T07:03:45.869Z</time>
      </trkpt>
      <trkpt lat="48.882824" lon="2.324201">
        <ele>63.495681</ele>
        <time>2025-06-26T07:03:47.973Z</time>
      </trkpt>
      <trkpt lat="48.882852" lon="2.324216">
        <ele>63.529572</ele>
        <time>2025-06-26T07:03:48.767Z</time>
      </trkpt>
      <trkpt lat="48.882874" lon="2.324224">
        <ele>63.555396</ele>
        <time>2025-06-26T07:03:49.332Z</time>
      </trkpt>
      <trkpt lat="48.882894" lon="2.324331">
        <ele>63.638907</ele>
        <time>2025-06-26T07:03:51.405Z</time>
      </trkpt>
      <trkpt lat="48.882900" lon="2.324360">
        <ele>63.661731</ele>
        <time>2025-06-26T07:03:51.949Z</time>
      </trkpt>
      <trkpt lat="48.882918" lon="2.324476">
        <ele>63.751208</ele>
        <time>2025-06-26T07:03:53.969Z</time>
      </trkpt>
      <trkpt lat="48.882897" lon="2.324568">
        <ele>63.824318</ele>
        <time>2025-06-26T07:03:55.704Z</time>
      </trkpt>
      <trkpt lat="48.883052" lon="2.325333">
        <ele>64.425274</ele>
        <time>2025-06-26T07:04:08.653Z</time>
      </trkpt>
      <trkpt lat="48.883066" lon="2.325401">
        <ele>64.478767</ele>
        <time>2025-06-26T07:04:09.789Z</time>
      </trkpt>
      <trkpt lat="48.883316" lon="2.326631">
        <ele>65.429142</ele>
        <time>2025-06-26T07:04:30.858Z</time>
      </trkpt>
      <trkpt lat="48.883311" lon="2.326650">
        <ele>65.443924</ele>
        <time>2025-06-26T07:04:31.138Z</time>
      </trkpt>
      <trkpt lat="48.883296" lon="2.326707">
        <ele>65.488272</ele>
        <time>2025-06-26T07:04:32.069Z</time>
      </trkpt>
      <trkpt lat="48.883270" lon="2.326804">
        <ele>65.563936</ele>
        <time>2025-06-26T07:04:33.869Z</time>
      </trkpt>
      <trkpt lat="48.883319" lon="2.327059">
        <ele>65.755835</ele>
        <time>2025-06-26T07:04:37.856Z</time>
      </trkpt>
      <trkpt lat="48.883337" lon="2.327177">
        <ele>65.843333</ele>
        <time>2025-06-26T07:04:39.527Z</time>
      </trkpt>
      <trkpt lat="48.883303" lon="2.327310">
        <ele>65.946408</ele>
        <time>2025-06-26T07:04:41.768Z</time>
      </trkpt>
      <trkpt lat="48.883326" lon="2.327483">
        <ele>66.073901</ele>
        <time>2025-06-26T07:04:44.608Z</time>
      </trkpt>
      <trkpt lat="48.883336" lon="2.327527">
        <ele>66.107528</ele>
        <time>2025-06-26T07:04:45.268Z</time>
      </trkpt>
      <trkpt lat="48.883351" lon="2.327599">
        <ele>66.162084</ele>
        <time>2025-06-26T07:04:46.384Z</time>
      </trkpt>
      <trkpt lat="48.883420" lon="2.327743">
        <ele>66.290785</ele>
        <time>2025-06-26T07:04:49.323Z</time>
      </trkpt>
      <trkpt lat="48.883471" lon="2.327754">
        <ele>66.347367</ele>
        <time>2025-06-26T07:04:50.564Z</time>
      </trkpt>
      <trkpt lat="48.883516" lon="2.327752">
        <ele>66.396819</ele>
        <time>2025-06-26T07:04:51.862Z</time>
      </trkpt>
      <trkpt lat="48.883541" lon="2.327823">
        <ele>66.454994</ele>
        <time>2025-06-26T07:04:53.133Z</time>
      </trkpt>
      <trkpt lat="48.883679" lon="2.328171">
        <ele>66.748534</ele>
        <time>2025-06-26T07:05:02.290Z</time>
      </trkpt>
      <trkpt lat="48.883854" lon="2.328442">
        <ele>67.035354</ele>
        <time>2025-06-26T07:05:12.162Z</time>
      </trkpt>
      <trkpt lat="48.884389" lon="2.329304">
        <ele>68.268441</ele>
        <time>2025-06-26T07:05:46.274Z</time>
      </trkpt>
      <trkpt lat="48.884409" lon="2.329450">
        <ele>68.423585</ele>
        <time>2025-06-26T07:05:49.974Z</time>
      </trkpt>
      <trkpt lat="48.884428" lon="2.329589">
        <ele>68.571278</ele>
        <time>2025-06-26T07:05:52.852Z</time>
      </trkpt>
      <trkpt lat="48.884398" lon="2.329743">
        <ele>68.738366</ele>
        <time>2025-06-26T07:05:56.004Z</time>
      </trkpt>
      <trkpt lat="48.884394" lon="2.329768">
        <ele>68.765133</ele>
        <time>2025-06-26T07:05:56.449Z</time>
      </trkpt>
      <trkpt lat="48.884404" lon="2.329843">
        <ele>68.844743</ele>
        <time>2025-06-26T07:05:57.802Z</time>
      </trkpt>
      <trkpt lat="48.884275" lon="2.330397">
        <ele>69.456136</ele>
        <time>2025-06-26T07:06:07.303Z</time>
      </trkpt>
      <trkpt lat="48.883889" lon="2.332046">
        <ele>69.134193</ele>
        <time>2025-06-26T07:06:28.862Z</time>
      </trkpt>
      <trkpt lat="48.883857" lon="2.332081">
        <ele>69.103562</ele>
        <time>2025-06-26T07:06:29.577Z</time>
      </trkpt>
      <trkpt lat="48.883842" lon="2.332130">
        <ele>69.075943</ele>
        <time>2025-06-26T07:06:30.190Z</time>
      </trkpt>
      <trkpt lat="48.883833" lon="2.332166">
        <ele>69.056262</ele>
        <time>2025-06-26T07:06:30.643Z</time>
      </trkpt>
      <trkpt lat="48.883814" lon="2.332237">
        <ele>69.017092</ele>
        <time>2025-06-26T07:06:31.540Z</time>
      </trkpt>
      <trkpt lat="48.883779" lon="2.332367">
        <ele>68.945309</ele>
        <time>2025-06-26T07:06:33.266Z</time>
      </trkpt>
      <trkpt lat="48.883712" lon="2.332598">
        <ele>68.816294</ele>
        <time>2025-06-26T07:06:36.467Z</time>
      </trkpt>
      <trkpt lat="48.883689" lon="2.332676">
        <ele>68.772612</ele>
        <time>2025-06-26T07:06:37.566Z</time>
      </trkpt>
      <trkpt lat="48.883659" lon="2.332781">
        <ele>68.714110</ele>
        <time>2025-06-26T07:06:39.096Z</time>
      </trkpt>
      <trkpt lat="48.883646" lon="2.332826">
        <ele>68.688993</ele>
        <time>2025-06-26T07:06:39.787Z</time>
      </trkpt>
      <trkpt lat="48.883305" lon="2.334016">
        <ele>68.166723</ele>
        <time>2025-06-26T07:07:00.122Z</time>
      </trkpt>
      <trkpt lat="48.883064" lon="2.334830">
        <ele>67.864974</ele>
        <time>2025-06-26T07:07:11.872Z</time>
      </trkpt>
      <trkpt lat="48.882446" lon="2.336886">
        <ele>68.121202</ele>
        <time>2025-06-26T07:07:40.542Z</time>
      </trkpt>
      <trkpt lat="48.882435" lon="2.336922">
        <ele>68.140621</ele>
        <time>2025-06-26T07:07:41.187Z</time>
      </trkpt>
      <trkpt lat="48.882411" lon="2.337011">
        <ele>68.187675</ele>
        <time>2025-06-26T07:07:42.972Z</time>
      </trkpt>
      <trkpt lat="48.882392" lon="2.337099">
        <ele>68.232983</ele>
        <time>2025-06-26T07:07:44.563Z</time>
      </trkpt>
      <trkpt lat="48.882380" lon="2.337146">
        <ele>68.257646</ele>
        <time>2025-06-26T07:07:45.396Z</time>
      </trkpt>
      <trkpt lat="48.882303" lon="2.337569">
        <ele>68.472347</ele>
        <time>2025-06-26T07:07:53.492Z</time>
      </trkpt>
      <trkpt lat="48.882299" lon="2.337585">
        <ele>68.480721</ele>
        <time>2025-06-26T07:07:53.813Z</time>
      </trkpt>
      <trkpt lat="48.882264" lon="2.337739">
        <ele>68.560425</ele>
        <time>2025-06-26T07:07:57.028Z</time>
      </trkpt>
      <trkpt lat="48.882242" lon="2.337872">
        <ele>68.627512</ele>
        <time>2025-06-26T07:07:59.808Z</time>
      </trkpt>
      <trkpt lat="48.882047" lon="2.339317">
        <ele>69.982576</ele>
        <time>2025-06-26T07:08:34.213Z</time>
      </trkpt>
      <trkpt lat="48.882000" lon="2.339455">
        <ele>70.156214</ele>
        <time>2025-06-26T07:08:37.704Z</time>
      </trkpt>
      <trkpt lat="48.881996" lon="2.339481">
        <ele>70.186048</ele>
        <time>2025-06-26T07:08:38.222Z</time>
      </trkpt>
      <trkpt lat="48.881983" lon="2.339573">
        <ele>70.291186</ele>
        <time>2025-06-26T07:08:40.070Z</time>
      </trkpt>
      <trkpt lat="48.881964" lon="2.339717">
        <ele>70.455283</ele>
        <time>2025-06-26T07:08:42.832Z</time>
      </trkpt>
      <trkpt lat="48.881961" lon="2.339794">
        <ele>70.541466</ele>
        <time>2025-06-26T07:08:44.270Z</time>
      </trkpt>
      <trkpt lat="48.881964" lon="2.339851">
        <ele>70.605356</ele>
        <time>2025-06-26T07:08:45.330Z</time>
      </trkpt>
      <trkpt lat="48.881974" lon="2.339910">
        <ele>70.673430</ele>
        <time>2025-06-26T07:08:46.390Z</time>
      </trkpt>
      <trkpt lat="48.882194" lon="2.340948">
        <ele>71.891929</ele>
        <time>2025-06-26T07:09:04.545Z</time>
      </trkpt>
      <trkpt lat="48.882365" lon="2.341820">
        <ele>71.772181</ele>
        <time>2025-06-26T07:09:16.827Z</time>
      </trkpt>
      <trkpt lat="48.882418" lon="2.342097">
        <ele>71.727078</ele>
        <time>2025-06-26T07:09:20.321Z</time>
      </trkpt>
      <trkpt lat="48.882723" lon="2.343651">
        <ele>71.516902</ele>
        <time>2025-06-26T07:09:42.269Z</time>
      </trkpt>
      <trkpt lat="48.882713" lon="2.343712">
        <ele>71.547557</ele>
        <time>2025-06-26T07:09:43.358Z</time>
      </trkpt>
      <trkpt lat="48.882741" lon="2.343851">
        <ele>71.618443</ele>
        <time>2025-06-26T07:09:45.756Z</time>
      </trkpt>
      <trkpt lat="48.882773" lon="2.344013">
        <ele>71.700922</ele>
        <time>2025-06-26T07:09:48.649Z</time>
      </trkpt>
      <trkpt lat="48.882849" lon="2.344391">
        <ele>71.893660</ele>
        <time>2025-06-26T07:09:55.665Z</time>
      </trkpt>
      <trkpt lat="48.882861" lon="2.344455">
        <ele>71.926111</ele>
        <time>2025-06-26T07:09:56.808Z</time>
      </trkpt>
      <trkpt lat="48.882872" lon="2.344498">
        <ele>71.948609</ele>
        <time>2025-06-26T07:09:57.639Z</time>
      </trkpt>
      <trkpt lat="48.882882" lon="2.344555">
        <ele>71.977374</ele>
        <time>2025-06-26T07:09:58.748Z</time>
      </trkpt>
      <trkpt lat="48.882909" lon="2.344589">
        <ele>72.003368</ele>
        <time>2025-06-26T07:09:59.735Z</time>
      </trkpt>
      <trkpt lat="48.883261" lon="2.346394">
        <ele>72.541906</ele>
        <time>2025-06-26T07:10:33.527Z</time>
      </trkpt>
      <trkpt lat="48.883247" lon="2.346470">
        <ele>72.439476</ele>
        <time>2025-06-26T07:10:34.521Z</time>
      </trkpt>
      <trkpt lat="48.883265" lon="2.346608">
        <ele>72.256888</ele>
        <time>2025-06-26T07:10:36.285Z</time>
      </trkpt>
      <trkpt lat="48.883272" lon="2.346651">
        <ele>72.199398</ele>
        <time>2025-06-26T07:10:36.825Z</time>
      </trkpt>
      <trkpt lat="48.883239" lon="2.346766">
        <ele>72.036559</ele>
        <time>2025-06-26T07:10:38.397Z</time>
      </trkpt>
      <trkpt lat="48.883282" lon="2.346928">
        <ele>71.809832</ele>
        <time>2025-06-26T07:10:40.493Z</time>
      </trkpt>
      <trkpt lat="48.883327" lon="2.347097">
        <ele>71.573204</ele>
        <time>2025-06-26T07:10:42.673Z</time>
      </trkpt>
      <trkpt lat="48.883323" lon="2.347208">
        <ele>71.428931</ele>
        <time>2025-06-26T07:10:43.998Z</time>
      </trkpt>
      <trkpt lat="48.883564" lon="2.349263">
        <ele>68.187572</ele>
        <time>2025-06-26T07:11:06.686Z</time>
      </trkpt>
      <trkpt lat="48.883610" lon="2.349515">
        <ele>67.518562</ele>
        <time>2025-06-26T07:11:09.386Z</time>
      </trkpt>
      <trkpt lat="48.883604" lon="2.349725">
        <ele>66.980859</ele>
        <time>2025-06-26T07:11:11.511Z</time>
      </trkpt>
      <trkpt lat="48.883699" lon="2.351165">
        <ele>63.278742</ele>
        <time>2025-06-26T07:11:26.212Z</time>
      </trkpt>
      <trkpt lat="48.883706" lon="2.351268">
        <ele>63.013858</ele>
        <time>2025-06-26T07:11:27.272Z</time>
      </trkpt>
      <trkpt lat="48.883719" lon="2.351435">
        <ele>62.583677</ele>
        <time>2025-06-26T07:11:29.019Z</time>
      </trkpt>
      <trkpt lat="48.883813" lon="2.352611">
        <ele>60.407945</ele>
        <time>2025-06-26T07:11:41.567Z</time>
      </trkpt>
      <trkpt lat="48.883857" lon="2.353149">
        <ele>59.457224</ele>
        <time>2025-06-26T07:11:47.542Z</time>
      </trkpt>
      <trkpt lat="48.883861" lon="2.353214">
        <ele>59.342740</ele>
        <time>2025-06-26T07:11:48.302Z</time>
      </trkpt>
      <trkpt lat="48.884008" lon="2.355351">
        <ele>56.897981</ele>
        <time>2025-06-26T07:12:13.666Z</time>
      </trkpt>
      <trkpt lat="48.884016" lon="2.355511">
        <ele>56.812576</ele>
        <time>2025-06-26T07:12:15.614Z</time>
      </trkpt>
      <trkpt lat="48.884036" lon="2.355689">
        <ele>56.716463</ele>
        <time>2025-06-26T07:12:17.867Z</time>
      </trkpt>
      <trkpt lat="48.884058" lon="2.356024">
        <ele>56.537274</ele>
        <time>2025-06-26T07:12:22.087Z</time>
      </trkpt>
      <trkpt lat="48.884067" lon="2.356167">
        <ele>56.460815</ele>
        <time>2025-06-26T07:12:23.997Z</time>
      </trkpt>
      <trkpt lat="48.884091" lon="2.356464">
        <ele>56.301549</ele>
        <time>2025-06-26T07:12:27.920Z</time>
      </trkpt>
      <trkpt lat="48.884166" lon="2.357570">
        <ele>56.704390</ele>
        <time>2025-06-26T07:12:46.387Z</time>
      </trkpt>
      <trkpt lat="48.884228" lon="2.358305">
        <ele>57.579446</ele>
        <time>2025-06-26T07:13:02.807Z</time>
      </trkpt>
      <trkpt lat="48.884222" lon="2.358527">
        <ele>57.841822</ele>
        <time>2025-06-26T07:13:08.097Z</time>
      </trkpt>
      <trkpt lat="48.884268" lon="2.359100">
        <ele>58.523487</ele>
        <time>2025-06-26T07:13:21.557Z</time>
      </trkpt>
      <trkpt lat="48.884268" lon="2.359170">
        <ele>58.606148</ele>
        <time>2025-06-26T07:13:23.175Z</time>
      </trkpt>
      <trkpt lat="48.884268" lon="2.359260">
        <ele>58.712427</ele>
        <time>2025-06-26T07:13:25.150Z</time>
      </trkpt>
      <trkpt lat="48.884264" lon="2.359385">
        <ele>58.860211</ele>
        <time>2025-06-26T07:13:28.057Z</time>
      </trkpt>
      <trkpt lat="48.884257" lon="2.359606">
        <ele>59.121487</ele>
        <time>2025-06-26T07:13:32.993Z</time>
      </trkpt>
      <trkpt lat="48.884257" lon="2.359634">
        <ele>59.154551</ele>
        <time>2025-06-26T07:13:33.609Z</time>
      </trkpt>
      <trkpt lat="48.884251" lon="2.361384">
        <ele>58.086644</ele>
        <time>2025-06-26T07:13:54.816Z</time>
      </trkpt>
      <trkpt lat="48.884251" lon="2.361417">
        <ele>58.063683</ele>
        <time>2025-06-26T07:13:55.175Z</time>
      </trkpt>
      <trkpt lat="48.884250" lon="2.361526">
        <ele>57.987837</ele>
        <time>2025-06-26T07:13:56.294Z</time>
      </trkpt>
      <trkpt lat="48.884251" lon="2.361570">
        <ele>57.957205</ele>
        <time>2025-06-26T07:13:56.786Z</time>
      </trkpt>
      <trkpt lat="48.884251" lon="2.361606">
        <ele>57.932157</ele>
        <time>2025-06-26T07:13:57.209Z</time>
      </trkpt>
      <trkpt lat="48.884250" lon="2.361632">
        <ele>57.914036</ele>
        <time>2025-06-26T07:13:57.501Z</time>
      </trkpt>
      <trkpt lat="48.884243" lon="2.362464">
        <ele>57.351747</ele>
        <time>2025-06-26T07:14:07.022Z</time>
      </trkpt>
      <trkpt lat="48.884243" lon="2.363243">
        <ele>57.664571</ele>
        <time>2025-06-26T07:14:17.622Z</time>
      </trkpt>
      <trkpt lat="48.884239" lon="2.363693">
        <ele>57.845295</ele>
        <time>2025-06-26T07:14:24.299Z</time>
      </trkpt>
      <trkpt lat="48.884238" lon="2.364183">
        <ele>58.042065</ele>
        <time>2025-06-26T07:14:34.973Z</time>
      </trkpt>
      <trkpt lat="48.884232" lon="2.364401">
        <ele>58.129685</ele>
        <time>2025-06-26T07:14:40.389Z</time>
      </trkpt>
      <trkpt lat="48.884231" lon="2.364479">
        <ele>58.161013</ele>
        <time>2025-06-26T07:14:42.219Z</time>
      </trkpt>
      <trkpt lat="48.884219" lon="2.364596">
        <ele>58.208565</ele>
        <time>2025-06-26T07:14:44.894Z</time>
      </trkpt>
      <trkpt lat="48.884213" lon="2.364783">
        <ele>58.283748</ele>
        <time>2025-06-26T07:14:48.863Z</time>
      </trkpt>
      <trkpt lat="48.884084" lon="2.366706">
        <ele>57.746500</ele>
        <time>2025-06-26T07:15:16.528Z</time>
      </trkpt>
      <trkpt lat="48.884083" lon="2.366725">
        <ele>57.737832</ele>
        <time>2025-06-26T07:15:16.757Z</time>
      </trkpt>
      <trkpt lat="48.884069" lon="2.366942">
        <ele>57.638669</ele>
        <time>2025-06-26T07:15:19.391Z</time>
      </trkpt>
      <trkpt lat="48.884052" lon="2.367212">
        <ele>57.515315</ele>
        <time>2025-06-26T07:15:22.659Z</time>
      </trkpt>
      <trkpt lat="48.884045" lon="2.367321">
        <ele>57.465507</ele>
        <time>2025-06-26T07:15:23.962Z</time>
      </trkpt>
      <trkpt lat="48.884039" lon="2.367418">
        <ele>57.421198</ele>
        <time>2025-06-26T07:15:25.045Z</time>
      </trkpt>
      <trkpt lat="48.884030" lon="2.367542">
        <ele>57.364462</ele>
        <time>2025-06-26T07:15:26.500Z</time>
      </trkpt>
      <trkpt lat="48.883992" lon="2.368248">
        <ele>56.721747</ele>
        <time>2025-06-26T07:15:34.645Z</time>
      </trkpt>
      <trkpt lat="48.883998" lon="2.368383">
        <ele>56.535199</ele>
        <time>2025-06-26T07:15:36.168Z</time>
      </trkpt>
      <trkpt lat="48.883851" lon="2.368598">
        <ele>56.107589</ele>
        <time>2025-06-26T07:15:39.840Z</time>
      </trkpt>
      <trkpt lat="48.884065" lon="2.368880">
        <ele>55.513902</ele>
        <time>2025-06-26T07:15:44.715Z</time>
      </trkpt>
      <trkpt lat="48.884184" lon="2.369005">
        <ele>55.210675</ele>
        <time>2025-06-26T07:15:47.111Z</time>
      </trkpt>
      <trkpt lat="48.884211" lon="2.369030">
        <ele>55.144399</ele>
        <time>2025-06-26T07:15:47.658Z</time>
      </trkpt>
      <trkpt lat="48.884175" lon="2.369116">
        <ele>55.003847</ele>
        <time>2025-06-26T07:15:48.763Z</time>
      </trkpt>
      <trkpt lat="48.884170" lon="2.369159">
        <ele>54.943644</ele>
        <time>2025-06-26T07:15:49.416Z</time>
      </trkpt>
      <trkpt lat="48.884215" lon="2.369226">
        <ele>54.811606</ele>
        <time>2025-06-26T07:15:50.499Z</time>
      </trkpt>
      <trkpt lat="48.884260" lon="2.369506">
        <ele>54.414213</ele>
        <time>2025-06-26T07:15:53.685Z</time>
      </trkpt>
      <trkpt lat="48.884321" lon="2.369896">
        <ele>53.861527</ele>
        <time>2025-06-26T07:15:58.282Z</time>
      </trkpt>
      <trkpt lat="48.884379" lon="2.370041">
        <ele>53.627539</ele>
        <time>2025-06-26T07:16:00.185Z</time>
      </trkpt>
      <trkpt lat="48.884817" lon="2.370897">
        <ele>53.001764</ele>
        <time>2025-06-26T07:16:13.900Z</time>
      </trkpt>
      <trkpt lat="48.885272" lon="2.371811">
        <ele>52.481005</ele>
        <time>2025-06-26T07:16:29.484Z</time>
      </trkpt>
      <trkpt lat="48.885292" lon="2.371849">
        <ele>52.458894</ele>
        <time>2025-06-26T07:16:30.187Z</time>
      </trkpt>
      <trkpt lat="48.885305" lon="2.371876">
        <ele>52.443693</ele>
        <time>2025-06-26T07:16:30.662Z</time>
      </trkpt>
      <trkpt lat="48.885327" lon="2.371920">
        <ele>52.418584</ele>
        <time>2025-06-26T07:16:31.434Z</time>
      </trkpt>
      <trkpt lat="48.885986" lon="2.373251">
        <ele>52.175823</ele>
        <time>2025-06-26T07:16:55.332Z</time>
      </trkpt>
      <trkpt lat="48.886575" lon="2.374431">
        <ele>52.162081</ele>
        <time>2025-06-26T07:17:16.989Z</time>
      </trkpt>
      <trkpt lat="48.886650" lon="2.374583">
        <ele>52.189228</ele>
        <time>2025-06-26T07:17:19.896Z</time>
      </trkpt>
      <trkpt lat="48.886687" lon="2.374658">
        <ele>52.217994</ele>
        <time>2025-06-26T07:17:21.325Z</time>
      </trkpt>
      <trkpt lat="48.887036" lon="2.375366">
        <ele>52.489464</ele>
        <time>2025-06-26T07:17:35.072Z</time>
      </trkpt>
      <trkpt lat="48.887119" lon="2.375536">
        <ele>52.554425</ele>
        <time>2025-06-26T07:17:38.455Z</time>
      </trkpt>
      <trkpt lat="48.887141" lon="2.375582">
        <ele>52.571875</ele>
        <time>2025-06-26T07:17:39.370Z</time>
      </trkpt>
      <trkpt lat="48.887765" lon="2.376845">
        <ele>53.125407</ele>
        <time>2025-06-26T07:18:04.391Z</time>
      </trkpt>
      <trkpt lat="48.887917" lon="2.377151">
        <ele>53.387289</ele>
        <time>2025-06-26T07:18:11.505Z</time>
      </trkpt>
      <trkpt lat="48.887974" lon="2.377267">
        <ele>53.486177</ele>
        <time>2025-06-26T07:18:14.301Z</time>
      </trkpt>
      <trkpt lat="48.888025" lon="2.377368">
        <ele>53.573137</ele>
        <time>2025-06-26T07:18:16.702Z</time>
      </trkpt>
      <trkpt lat="48.888360" lon="2.378036">
        <ele>54.146823</ele>
        <time>2025-06-26T07:18:30.855Z</time>
      </trkpt>
      <trkpt lat="48.888601" lon="2.378503">
        <ele>54.552209</ele>
        <time>2025-06-26T07:18:41.410Z</time>
      </trkpt>
      <trkpt lat="48.888752" lon="2.378810">
        <ele>54.814010</ele>
        <time>2025-06-26T07:18:48.450Z</time>
      </trkpt>
      <trkpt lat="48.888790" lon="2.378893">
        <ele>54.876782</ele>
        <time>2025-06-26T07:18:50.436Z</time>
      </trkpt>
      <trkpt lat="48.888767" lon="2.378976">
        <ele>54.912070</ele>
        <time>2025-06-26T07:18:51.944Z</time>
      </trkpt>
      <trkpt lat="48.888647" lon="2.379111">
        <ele>55.001006</ele>
        <time>2025-06-26T07:18:56.183Z</time>
      </trkpt>
      <trkpt lat="48.888517" lon="2.379230">
        <ele>55.091414</ele>
        <time>2025-06-26T07:19:00.378Z</time>
      </trkpt>
      <trkpt lat="48.888480" lon="2.379273">
        <ele>55.119159</ele>
        <time>2025-06-26T07:19:01.714Z</time>
      </trkpt>
      <trkpt lat="48.888439" lon="2.379322">
        <ele>55.150229</ele>
        <time>2025-06-26T07:19:03.205Z</time>
      </trkpt>
      <trkpt lat="48.888304" lon="2.379488">
        <ele>55.253670</ele>
        <time>2025-06-26T07:19:07.413Z</time>
      </trkpt>
      <trkpt lat="48.888236" lon="2.379561">
        <ele>55.303264</ele>
        <time>2025-06-26T07:19:09.296Z</time>
      </trkpt>
      <trkpt lat="48.888180" lon="2.379628">
        <ele>55.345719</ele>
        <time>2025-06-26T07:19:10.964Z</time>
      </trkpt>
      <trkpt lat="48.888252" lon="2.379678">
        <ele>55.392880</ele>
        <time>2025-06-26T07:19:12.570Z</time>
      </trkpt>
      <trkpt lat="48.888756" lon="2.380695">
        <ele>55.891816</ele>
        <time>2025-06-26T07:19:33.297Z</time>
      </trkpt>
      <trkpt lat="48.888795" lon="2.380773">
        <ele>55.930206</ele>
        <time>2025-06-26T07:19:34.872Z</time>
      </trkpt>
      <trkpt lat="48.889660" lon="2.382511">
        <ele>55.516584</ele>
        <time>2025-06-26T07:20:05.533Z</time>
      </trkpt>
      <trkpt lat="48.889679" lon="2.382549">
        <ele>55.507203</ele>
        <time>2025-06-26T07:20:06.127Z</time>
      </trkpt>
      <trkpt lat="48.890102" lon="2.383405">
        <ele>55.233856</ele>
        <time>2025-06-26T07:20:19.691Z</time>
      </trkpt>
      <trkpt lat="48.890174" lon="2.383549">
        <ele>55.177138</ele>
        <time>2025-06-26T07:20:21.975Z</time>
      </trkpt>
      <trkpt lat="48.890807" lon="2.384821">
        <ele>54.676995</ele>
        <time>2025-06-26T07:20:44.387Z</time>
      </trkpt>
      <trkpt lat="48.890858" lon="2.384926">
        <ele>54.636068</ele>
        <time>2025-06-26T07:20:46.419Z</time>
      </trkpt>
      <trkpt lat="48.891421" lon="2.386057">
        <ele>54.132418</ele>
        <time>2025-06-26T07:21:05.503Z</time>
      </trkpt>
      <trkpt lat="48.891434" lon="2.386084">
        <ele>54.120178</ele>
        <time>2025-06-26T07:21:05.947Z</time>
      </trkpt>
      <trkpt lat="48.891579" lon="2.386374">
        <ele>53.986922</ele>
        <time>2025-06-26T07:21:10.800Z</time>
      </trkpt>
      <trkpt lat="48.891595" lon="2.386463">
        <ele>53.953175</ele>
        <time>2025-06-26T07:21:12.043Z</time>
      </trkpt>
      <trkpt lat="48.891706" lon="2.386687">
        <ele>53.850583</ele>
        <time>2025-06-26T07:21:15.719Z</time>
      </trkpt>
      <trkpt lat="48.891851" lon="2.386732">
        <ele>53.768258</ele>
        <time>2025-06-26T07:21:18.682Z</time>
      </trkpt>
      <trkpt lat="48.891917" lon="2.386805">
        <ele>53.722861</ele>
        <time>2025-06-26T07:21:20.309Z</time>
      </trkpt>
      <trkpt lat="48.891978" lon="2.386947">
        <ele>53.660821</ele>
        <time>2025-06-26T07:21:22.485Z</time>
      </trkpt>
      <trkpt lat="48.891988" lon="2.387014">
        <ele>53.635692</ele>
        <time>2025-06-26T07:21:23.387Z</time>
      </trkpt>
      <trkpt lat="48.892083" lon="2.387184">
        <ele>53.554090</ele>
        <time>2025-06-26T07:21:26.197Z</time>
      </trkpt>
      <trkpt lat="48.892551" lon="2.388159">
        <ele>53.450707</ele>
        <time>2025-06-26T07:21:42.934Z</time>
      </trkpt>
      <trkpt lat="48.892957" lon="2.388962">
        <ele>53.370443</ele>
        <time>2025-06-26T07:21:58.030Z</time>
      </trkpt>
      <trkpt lat="48.894293" lon="2.391633">
        <ele>53.502669</ele>
        <time>2025-06-26T07:22:48.095Z</time>
      </trkpt>
      <trkpt lat="48.894361" lon="2.391770">
        <ele>53.518677</ele>
        <time>2025-06-26T07:22:50.587Z</time>
      </trkpt>
      <trkpt lat="48.894417" lon="2.391884">
        <ele>53.531948</ele>
        <time>2025-06-26T07:22:52.633Z</time>
      </trkpt>
      <trkpt lat="48.894503" lon="2.392058">
        <ele>53.552249</ele>
        <time>2025-06-26T07:22:55.760Z</time>
      </trkpt>
      <trkpt lat="48.895154" lon="2.393483">
        <ele>53.714070</ele>
        <time>2025-06-26T07:23:22.471Z</time>
      </trkpt>
      <trkpt lat="48.895333" lon="2.393821">
        <ele>53.744541</ele>
        <time>2025-06-26T07:23:30.885Z</time>
      </trkpt>
      <trkpt lat="48.895480" lon="2.394251">
        <ele>53.676933</ele>
        <time>2025-06-26T07:23:40.122Z</time>
      </trkpt>
      <trkpt lat="48.895625" lon="2.394835">
        <ele>53.589851</ele>
        <time>2025-06-26T07:23:51.827Z</time>
      </trkpt>
      <trkpt lat="48.895572" lon="2.395025">
        <ele>53.561060</ele>
        <time>2025-06-26T07:23:55.655Z</time>
      </trkpt>
      <trkpt lat="48.895787" lon="2.396550">
        <ele>53.472508</ele>
        <time>2025-06-26T07:24:23.598Z</time>
      </trkpt>
      <trkpt lat="48.895815" lon="2.396973">
        <ele>53.714395</ele>
        <time>2025-06-26T07:24:32.121Z</time>
      </trkpt>
      <trkpt lat="48.895821" lon="2.397026">
        <ele>53.744993</ele>
        <time>2025-06-26T07:24:33.005Z</time>
      </trkpt>
      <trkpt lat="48.895885" lon="2.397594">
        <ele>54.072874</ele>
        <time>2025-06-26T07:24:42.952Z</time>
      </trkpt>
      <trkpt lat="48.895891" lon="2.398183">
        <ele>54.408030</ele>
        <time>2025-06-26T07:24:53.853Z</time>
      </trkpt>
      <trkpt lat="48.895877" lon="2.399082">
        <ele>54.919667</ele>
        <time>2025-06-26T07:25:10.540Z</time>
      </trkpt>
      <trkpt lat="48.895819" lon="2.399744">
        <ele>55.169388</ele>
        <time>2025-06-26T07:25:22.211Z</time>
      </trkpt>
      <trkpt lat="48.895948" lon="2.399933">
        <ele>55.270430</ele>
        <time>2025-06-26T07:25:26.719Z</time>
      </trkpt>
      <trkpt lat="48.895904" lon="2.400503">
        <ele>55.483284</ele>
        <time>2025-06-26T07:25:36.063Z</time>
      </trkpt>
      <trkpt lat="48.895888" lon="2.400771">
        <ele>55.583089</ele>
        <time>2025-06-26T07:25:48.386Z</time>
      </trkpt>
      <trkpt lat="48.895918" lon="2.400842">
        <ele>55.614391</ele>
        <time>2025-06-26T07:25:49.584Z</time>
      </trkpt>
      <trkpt lat="48.895900" lon="2.401159">
        <ele>55.732398</ele>
        <time>2025-06-26T07:25:54.213Z</time>
      </trkpt>
      <trkpt lat="48.895859" lon="2.401236">
        <ele>55.769147</ele>
        <time>2025-06-26T07:25:55.756Z</time>
      </trkpt>
      <trkpt lat="48.895760" lon="2.402162">
        <ele>55.904318</ele>
        <time>2025-06-26T07:26:09.153Z</time>
      </trkpt>
      <trkpt lat="48.895615" lon="2.403729">
        <ele>55.785376</ele>
        <time>2025-06-26T07:26:32.797Z</time>
      </trkpt>
      <trkpt lat="48.895473" lon="2.405168">
        <ele>55.584883</ele>
        <time>2025-06-26T07:26:52.240Z</time>
      </trkpt>
      <trkpt lat="48.895388" lon="2.406146">
        <ele>55.395300</ele>
        <time>2025-06-26T07:27:06.373Z</time>
      </trkpt>
      <trkpt lat="48.895093" lon="2.409233">
        <ele>55.241871</ele>
        <time>2025-06-26T07:27:53.764Z</time>
      </trkpt>
      <trkpt lat="48.895078" lon="2.409255">
        <ele>55.242359</ele>
        <time>2025-06-26T07:27:55.257Z</time>
      </trkpt>
      <trkpt lat="48.894984" lon="2.410306">
        <ele>55.241144</ele>
        <time>2025-06-26T07:28:11.071Z</time>
      </trkpt>
      <trkpt lat="48.894972" lon="2.410391">
        <ele>55.239464</ele>
        <time>2025-06-26T07:28:12.349Z</time>
      </trkpt>
      <trkpt lat="48.894936" lon="2.410449">
        <ele>55.237922</ele>
        <time>2025-06-26T07:28:13.549Z</time>
      </trkpt>
      <trkpt lat="48.894947" lon="2.410502">
        <ele>55.236848</ele>
        <time>2025-06-26T07:28:16.071Z</time>
      </trkpt>
      <trkpt lat="48.894959" lon="2.410558">
        <ele>55.235710</ele>
        <time>2025-06-26T07:28:16.924Z</time>
      </trkpt>
      <trkpt lat="48.894751" lon="2.412641">
        <ele>55.101856</ele>
        <time>2025-06-26T07:28:57.609Z</time>
      </trkpt>
      <trkpt lat="48.894722" lon="2.412917">
        <ele>54.931316</ele>
        <time>2025-06-26T07:29:01.605Z</time>
      </trkpt>
      <trkpt lat="48.894724" lon="2.413137">
        <ele>54.797069</ele>
        <time>2025-06-26T07:29:04.708Z</time>
      </trkpt>
      <trkpt lat="48.894754" lon="2.413322">
        <ele>54.680808</ele>
        <time>2025-06-26T07:29:07.348Z</time>
      </trkpt>
      <trkpt lat="48.894987" lon="2.415376">
        <ele>53.528765</ele>
        <time>2025-06-26T07:29:34.302Z</time>
      </trkpt>
      <trkpt lat="48.895195" lon="2.417264">
        <ele>53.528765</ele>
        <time>2025-06-26T07:29:58.706Z</time>
      </trkpt>
      <trkpt lat="48.895236" lon="2.417672">
        <ele>53.528765</ele>
        <time>2025-06-26T07:30:04.342Z</time>
      </trkpt>
      <trkpt lat="48.895286" lon="2.418147">
        <ele>53.528765</ele>
        <time>2025-06-26T07:30:11.128Z</time>
      </trkpt>
    </trkseg>
  </trk>
</gpx>